createdAt,value
2022-12-01T00:01:19.914Z,69.59
2022-12-01T00:03:47.132Z,70.19
2022-12-01T00:06:17.298Z,69.51
2022-12-01T00:09:06.681Z,69.96
2022-12-01T00:11:35.670Z,70.22
2022-12-01T00:14:03.092Z,69.66
2022-12-01T00:16:30.919Z,69.79
2022-12-01T00:18:58.118Z,69.66
2022-12-01T00:21:26.665Z,69.38
2022-12-01T00:23:56.740Z,69.89
2022-12-01T00:26:25.519Z,69.59
2022-12-01T00:28:54.294Z,69.38
2022-12-01T00:31:21.664Z,69.32
2022-12-01T00:33:50.062Z,69.82
2022-12-01T00:36:17.709Z,69.76
2022-12-01T00:38:44.863Z,70.05
2022-12-01T00:41:11.854Z,69.94
2022-12-01T00:43:39.958Z,69.87
2022-12-01T00:46:07.372Z,69.30
2022-12-01T00:48:34.731Z,69.93
2022-12-01T00:51:02.088Z,69.96
2022-12-01T00:53:29.141Z,69.67
2022-12-01T00:55:56.350Z,69.43
2022-12-01T00:58:24.370Z,69.50
2022-12-01T01:01:00.910Z,69.82
2022-12-01T01:03:28.953Z,68.83
2022-12-01T01:05:56.227Z,69.50
2022-12-01T01:08:23.191Z,69.52
2022-12-01T01:10:50.957Z,69.99
2022-12-01T01:13:17.961Z,69.37
2022-12-01T01:15:45.696Z,69.08
2022-12-01T01:18:12.801Z,69.70
2022-12-01T01:20:39.862Z,69.87
2022-12-01T01:23:07.216Z,69.70
2022-12-01T01:25:34.711Z,69.28
2022-12-01T01:28:03.014Z,69.43
2022-12-01T01:30:30.063Z,69.33
2022-12-01T01:32:57.057Z,69.00
2022-12-01T01:35:26.031Z,69.33
2022-12-01T01:37:53.813Z,69.90
2022-12-01T01:40:20.912Z,69.77
2022-12-01T01:42:47.983Z,69.27
2022-12-01T01:45:33.227Z,68.98
2022-12-01T01:48:00.977Z,69.01
2022-12-01T01:50:29.093Z,69.21
2022-12-01T01:53:03.200Z,69.79
2022-12-01T01:55:33.944Z,69.23
2022-12-01T01:58:03.029Z,69.13
2022-12-01T02:00:30.376Z,69.12
2022-12-01T02:03:00.253Z,68.97
2022-12-01T02:05:32.922Z,69.35
2022-12-01T02:08:02.396Z,69.25
2022-12-01T02:10:45.099Z,69.00
2022-12-01T02:13:20.237Z,69.55
2022-12-01T02:16:04.306Z,69.64
2022-12-01T02:19:03.507Z,69.53
2022-12-01T02:21:55.361Z,69.11
2022-12-01T02:24:34.534Z,69.10
2022-12-01T02:27:12.982Z,68.61
2022-12-01T02:29:58.538Z,69.29
2022-12-01T02:32:53.832Z,68.70
2022-12-01T02:35:45.116Z,69.03
2022-12-01T02:38:30.831Z,69.17
2022-12-01T02:41:10.660Z,68.74
2022-12-01T02:43:53.429Z,69.32
2022-12-01T02:46:31.479Z,69.26
2022-12-01T02:49:02.369Z,68.85
2022-12-01T02:51:32.456Z,68.98
2022-12-01T02:54:02.418Z,68.72
2022-12-01T02:56:29.858Z,69.22
2022-12-01T02:58:57.004Z,68.59
2022-12-01T03:01:54.263Z,69.03
2022-12-01T03:04:27.399Z,69.34
2022-12-01T03:07:33.082Z,68.58
2022-12-01T03:10:06.493Z,68.84
2022-12-01T03:13:06.212Z,69.07
2022-12-01T03:15:54.078Z,68.72
2022-12-01T03:18:33.499Z,68.78
2022-12-01T03:21:37.706Z,69.14
2022-12-01T03:24:10.778Z,68.94
2022-12-01T03:26:41.444Z,69.01
2022-12-01T03:29:14.457Z,68.87
2022-12-01T03:31:53.915Z,68.67
2022-12-01T03:34:32.166Z,69.22
2022-12-01T03:37:05.992Z,69.31
2022-12-01T03:39:36.951Z,69.36
2022-12-01T03:42:27.754Z,68.75
2022-12-01T03:44:59.082Z,68.74
2022-12-01T03:47:32.897Z,68.90
2022-12-01T03:50:00.748Z,69.17
2022-12-01T03:52:45.910Z,69.50
2022-12-01T03:55:26.410Z,69.42
2022-12-01T03:58:14.488Z,68.59
2022-12-01T04:00:42.174Z,69.00
2022-12-01T04:03:18.042Z,69.01
2022-12-01T04:05:45.196Z,68.86
2022-12-01T04:08:12.241Z,69.26
2022-12-01T04:10:39.227Z,69.23
2022-12-01T04:13:06.443Z,68.74
2022-12-01T04:15:33.507Z,69.59
2022-12-01T04:18:00.558Z,69.82
2022-12-01T04:20:27.622Z,69.44
2022-12-01T04:22:55.391Z,69.21
2022-12-01T04:25:23.577Z,69.06
2022-12-01T04:27:50.700Z,69.71
2022-12-01T04:30:18.570Z,68.72
2022-12-01T04:32:46.158Z,68.68
2022-12-01T04:35:13.564Z,69.04
2022-12-01T04:37:41.301Z,69.25
2022-12-01T04:40:09.238Z,68.83
2022-12-01T04:42:36.863Z,68.94
2022-12-01T04:45:04.475Z,68.97
2022-12-01T04:47:31.825Z,68.72
2022-12-01T04:50:02.948Z,68.65
2022-12-01T04:52:35.082Z,68.60
2022-12-01T04:55:03.724Z,69.30
2022-12-01T04:57:31.128Z,68.51
2022-12-01T04:59:58.333Z,69.42
2022-12-01T05:02:25.567Z,69.14
2022-12-01T05:04:52.672Z,69.16
2022-12-01T05:07:20.052Z,68.72
2022-12-01T05:09:47.542Z,69.08
2022-12-01T05:12:20.070Z,68.78
2022-12-01T05:14:47.276Z,69.24
2022-12-01T05:17:15.195Z,68.97
2022-12-01T05:20:22.131Z,68.69
2022-12-01T05:23:05.948Z,68.63
2022-12-01T05:25:33.627Z,68.31
2022-12-01T05:28:00.831Z,68.76
2022-12-01T05:30:28.953Z,69.08
2022-12-01T05:32:56.314Z,68.78
2022-12-01T05:35:23.401Z,68.68
2022-12-01T05:37:50.448Z,69.00
2022-12-01T05:40:17.661Z,69.14
2022-12-01T05:42:44.798Z,69.50
2022-12-01T05:45:11.859Z,69.04
2022-12-01T05:47:38.931Z,69.56
2022-12-01T05:50:06.909Z,69.19
2022-12-01T05:52:37.477Z,68.85
2022-12-01T05:55:05.704Z,68.87
2022-12-01T05:57:33.966Z,68.46
2022-12-01T06:00:01.024Z,68.97
2022-12-01T06:02:40.444Z,68.86
2022-12-01T06:05:09.504Z,68.37
2022-12-01T06:07:36.654Z,68.45
2022-12-01T06:10:04.502Z,68.60
2022-12-01T06:12:31.605Z,68.14
2022-12-01T06:14:58.587Z,68.81
2022-12-01T06:17:25.667Z,67.79
2022-12-01T06:19:52.883Z,68.60
2022-12-01T06:22:19.958Z,68.02
2022-12-01T06:24:47.110Z,68.33
2022-12-01T06:27:14.311Z,68.39
2022-12-01T06:29:42.420Z,68.39
2022-12-01T06:32:10.332Z,68.64
2022-12-01T06:34:37.559Z,68.12
2022-12-01T06:37:04.778Z,68.60
2022-12-01T06:39:32.007Z,68.34
2022-12-01T06:41:59.064Z,67.99
2022-12-01T06:44:26.089Z,68.58
2022-12-01T06:46:53.123Z,68.21
2022-12-01T06:49:20.824Z,68.06
2022-12-01T06:51:47.976Z,68.00
2022-12-01T06:54:15.391Z,68.34
2022-12-01T06:56:43.359Z,67.89
2022-12-01T06:59:10.669Z,68.25
2022-12-01T07:01:38.379Z,67.88
2022-12-01T07:04:05.467Z,68.11
2022-12-01T07:06:33.008Z,68.27
2022-12-01T07:09:00.194Z,68.35
2022-12-01T07:11:27.239Z,67.57
2022-12-01T07:13:57.451Z,67.67
2022-12-01T07:16:25.017Z,67.47
2022-12-01T07:18:52.898Z,67.22
2022-12-01T07:21:20.527Z,67.19
2022-12-01T07:23:47.990Z,67.51
2022-12-01T07:26:17.706Z,67.37
2022-12-01T07:28:45.598Z,67.17
2022-12-01T07:31:15.728Z,67.44
2022-12-01T07:33:43.483Z,67.10
2022-12-01T07:36:12.095Z,66.77
2022-12-01T07:38:39.859Z,66.84
2022-12-01T07:41:09.315Z,66.72
2022-12-01T07:43:37.197Z,66.67
2022-12-01T07:46:25.227Z,65.98
2022-12-01T07:48:53.263Z,66.11
2022-12-01T07:51:21.458Z,66.42
2022-12-01T07:53:50.629Z,66.22
2022-12-01T07:56:19.341Z,65.98
2022-12-01T07:58:46.753Z,65.97
2022-12-01T08:01:19.918Z,66.02
2022-12-01T08:03:49.737Z,65.74
2022-12-01T08:06:18.364Z,66.43
2022-12-01T08:08:45.904Z,66.21
2022-12-01T08:11:24.376Z,65.30
2022-12-01T08:13:53.056Z,65.61
2022-12-01T08:16:22.515Z,65.81
2022-12-01T08:18:50.592Z,65.51
2022-12-01T08:21:20.904Z,65.70
2022-12-01T08:23:48.082Z,65.68
2022-12-01T08:26:18.010Z,66.17
2022-12-01T08:28:45.876Z,65.62
2022-12-01T08:31:17.289Z,65.86
2022-12-01T08:33:44.547Z,65.61
2022-12-01T08:36:11.700Z,65.62
2022-12-01T08:38:38.833Z,65.71
2022-12-01T08:41:09.218Z,65.58
2022-12-01T08:46:34.694Z,65.52
2022-12-01T08:49:03.020Z,65.82
2022-12-01T08:51:30.305Z,65.82
2022-12-01T08:53:58.511Z,65.73
2022-12-01T08:56:32.395Z,65.77
2022-12-01T08:59:00.091Z,66.52
2022-12-01T09:01:27.501Z,66.14
2022-12-01T09:04:06.110Z,66.26
2022-12-01T09:06:39.057Z,65.98
2022-12-01T09:09:06.215Z,65.85
2022-12-01T09:11:33.167Z,66.12
2022-12-01T09:14:00.829Z,65.80
2022-12-01T09:16:27.978Z,65.21
2022-12-01T09:18:55.217Z,65.15
2022-12-01T09:21:25.889Z,64.70
2022-12-01T09:23:54.339Z,64.58
2022-12-01T09:26:22.205Z,64.10
2022-12-01T09:29:00.699Z,64.31
2022-12-01T09:31:28.214Z,64.51
2022-12-01T09:33:59.767Z,64.35
2022-12-01T09:36:30.661Z,64.19
2022-12-01T09:38:58.647Z,64.41
2022-12-01T09:41:45.555Z,63.62
2022-12-01T09:44:16.784Z,64.04
2022-12-01T09:46:49.189Z,63.81
2022-12-01T09:49:23.049Z,63.88
2022-12-01T09:51:50.958Z,63.06
2022-12-01T09:54:18.237Z,64.13
2022-12-01T09:56:49.638Z,64.12
2022-12-01T09:59:31.340Z,63.43
2022-12-01T10:02:25.683Z,62.75
2022-12-01T10:04:57.144Z,64.10
2022-12-01T10:08:03.175Z,62.79
2022-12-01T10:10:47.409Z,63.27
2022-12-01T10:13:21.302Z,63.64
2022-12-01T10:15:54.641Z,62.98
2022-12-01T10:18:40.031Z,62.53
2022-12-01T10:21:25.228Z,62.33
2022-12-01T10:24:06.899Z,62.54
2022-12-01T10:27:04.389Z,62.65
2022-12-01T10:29:43.808Z,62.62
2022-12-01T10:32:14.212Z,62.89
2022-12-01T10:34:42.684Z,62.75
2022-12-01T10:37:19.033Z,62.19
2022-12-01T10:39:49.988Z,63.07
2022-12-01T10:42:29.427Z,62.48
2022-12-01T10:45:00.735Z,62.41
2022-12-01T10:47:29.012Z,62.69
2022-12-01T10:49:56.489Z,62.71
2022-12-01T10:52:35.623Z,61.79
2022-12-01T10:55:06.057Z,62.90
2022-12-01T10:57:33.318Z,62.82
2022-12-01T11:00:50.855Z,62.56
2022-12-01T11:03:07.524Z,62.92
2022-12-01T11:05:41.161Z,62.29
2022-12-01T11:08:25.903Z,62.04
2022-12-01T11:10:53.050Z,62.78
2022-12-01T11:13:28.796Z,62.35
2022-12-01T11:16:04.145Z,62.38
2022-12-01T11:18:37.679Z,62.49
2022-12-01T11:21:27.554Z,61.14
2022-12-01T11:23:56.527Z,62.75
2022-12-01T11:26:27.505Z,62.76
2022-12-01T11:29:00.695Z,62.37
2022-12-01T11:31:57.650Z,62.27
2022-12-01T11:34:28.762Z,62.48
2022-12-01T11:37:06.349Z,62.59
2022-12-01T11:39:45.089Z,62.90
2022-12-01T11:42:14.158Z,63.00
2022-12-01T11:44:51.792Z,62.82
2022-12-01T11:50:28.669Z,62.46
2022-12-01T11:53:04.379Z,62.90
2022-12-01T11:55:32.158Z,63.46
2022-12-01T11:58:03.012Z,63.05
2022-12-01T12:00:56.249Z,62.55
2022-12-01T12:03:58.588Z,62.53
2022-12-01T12:07:00.974Z,62.50
2022-12-01T12:09:48.315Z,62.95
2022-12-01T12:12:31.255Z,62.42
2022-12-01T12:15:26.949Z,62.28
2022-12-01T12:17:57.361Z,63.12
2022-12-01T12:20:47.598Z,62.57
2022-12-01T12:23:21.832Z,63.56
2022-12-01T12:26:04.384Z,62.87
2022-12-01T12:28:37.364Z,62.69
2022-12-01T12:31:42.953Z,63.06
2022-12-01T12:34:25.626Z,63.21
2022-12-01T12:37:19.319Z,63.22
2022-12-01T12:39:46.419Z,63.18
2022-12-01T12:42:39.748Z,62.88
2022-12-01T12:45:28.965Z,63.24
2022-12-01T12:48:38.689Z,63.26
2022-12-01T12:51:44.239Z,63.27
2022-12-01T12:54:22.141Z,63.26
2022-12-01T12:56:55.520Z,64.05
2022-12-01T12:59:31.718Z,63.55
2022-12-01T13:02:10.704Z,63.67
2022-12-01T13:04:51.779Z,63.42
2022-12-01T13:07:26.925Z,63.95
2022-12-01T13:10:01.488Z,63.37
2022-12-01T13:12:35.642Z,63.84
2022-12-01T13:15:15.528Z,63.29
2022-12-01T13:17:48.386Z,63.77
2022-12-01T13:20:19.356Z,64.05
2022-12-01T13:22:48.342Z,63.50
2022-12-01T13:25:47.626Z,63.27
2022-12-01T13:28:28.269Z,63.53
2022-12-01T13:31:16.053Z,62.85
2022-12-01T13:34:11.669Z,63.15
2022-12-01T13:36:49.200Z,62.93
2022-12-01T13:39:23.388Z,63.21
2022-12-01T13:42:21.614Z,62.82
2022-12-01T13:45:07.013Z,62.75
2022-12-01T13:47:51.858Z,62.94
2022-12-01T13:50:48.826Z,62.77
2022-12-01T13:53:37.700Z,63.53
2022-12-01T13:56:16.750Z,63.41
2022-12-01T13:58:49.730Z,63.17
2022-12-01T14:01:19.863Z,62.64
2022-12-01T14:04:18.554Z,63.18
2022-12-01T14:06:50.628Z,63.38
2022-12-01T14:09:41.895Z,62.99
2022-12-01T14:12:11.928Z,62.89
2022-12-01T14:14:41.699Z,63.71
2022-12-01T14:17:35.046Z,63.11
2022-12-01T14:20:13.646Z,63.62
2022-12-01T14:22:46.915Z,63.08
2022-12-01T14:25:20.473Z,63.30
2022-12-01T14:27:50.966Z,63.39
2022-12-01T14:30:39.987Z,63.18
2022-12-01T14:33:47.646Z,63.08
2022-12-01T14:36:23.660Z,63.96
2022-12-01T14:39:03.116Z,63.61
2022-12-01T14:41:57.581Z,63.99
2022-12-01T14:44:36.311Z,64.12
2022-12-01T14:47:21.885Z,63.87
2022-12-01T14:50:20.845Z,64.28
2022-12-01T14:52:53.452Z,64.23
2022-12-01T14:55:24.946Z,64.06
2022-12-01T14:58:00.793Z,63.85
2022-12-01T15:00:28.290Z,64.16
2022-12-01T15:02:57.570Z,63.95
2022-12-01T15:05:27.575Z,63.89
2022-12-01T15:08:18.602Z,64.05
2022-12-01T15:10:57.707Z,63.72
2022-12-01T15:13:25.073Z,63.75
2022-12-01T15:16:12.957Z,64.11
2022-12-01T15:18:40.104Z,63.97
2022-12-01T15:21:13.263Z,64.04
2022-12-01T15:24:01.595Z,63.45
2022-12-01T15:26:47.348Z,63.76
2022-12-01T15:29:22.459Z,63.70
2022-12-01T15:31:52.710Z,63.81
2022-12-01T15:34:28.911Z,63.87
2022-12-01T15:36:57.241Z,63.95
2022-12-01T15:39:39.357Z,63.36
2022-12-01T15:42:06.987Z,63.89
2022-12-01T15:44:36.528Z,63.70
2022-12-01T15:47:41.021Z,63.09
2022-12-01T15:50:33.670Z,63.14
2022-12-01T15:53:04.302Z,63.74
2022-12-01T15:55:35.185Z,63.68
2022-12-01T15:58:07.166Z,63.40
2022-12-01T16:00:34.908Z,63.50
2022-12-01T16:03:03.460Z,63.16
2022-12-01T16:05:32.891Z,63.44
2022-12-01T16:08:17.426Z,62.87
2022-12-01T16:10:44.991Z,63.47
2022-12-01T16:13:43.883Z,62.93
2022-12-01T16:16:50.060Z,62.76
2022-12-01T16:19:17.122Z,63.19
2022-12-01T16:21:54.086Z,63.23
2022-12-01T16:24:38.046Z,62.90
2022-12-01T16:27:11.392Z,62.90
2022-12-01T16:29:56.954Z,62.92
2022-12-01T16:32:27.605Z,63.27
2022-12-01T16:34:58.389Z,63.18
2022-12-01T16:37:27.094Z,63.23
2022-12-01T16:39:54.703Z,63.33
2022-12-01T16:42:21.892Z,63.15
2022-12-01T16:44:50.517Z,62.98
2022-12-01T16:47:25.703Z,62.87
2022-12-01T16:49:53.489Z,63.49
2022-12-01T16:52:44.331Z,63.13
2022-12-01T16:55:44.160Z,62.66
2022-12-01T16:58:11.865Z,63.34
2022-12-01T17:00:39.012Z,62.87
2022-12-01T17:03:07.338Z,63.01
2022-12-01T17:05:34.989Z,62.96
2022-12-01T17:08:04.361Z,63.01
2022-12-01T17:10:31.950Z,62.61
2022-12-01T17:12:59.254Z,63.41
2022-12-01T17:15:27.407Z,62.71
2022-12-01T17:17:54.949Z,62.88
2022-12-01T17:20:22.104Z,62.97
2022-12-01T17:22:51.828Z,63.06
2022-12-01T17:25:19.152Z,63.26
2022-12-01T17:27:46.531Z,62.79
2022-12-01T17:30:14.289Z,62.98
2022-12-01T17:32:41.298Z,62.72
2022-12-01T17:35:15.042Z,62.73
2022-12-01T17:37:42.713Z,62.91
2022-12-01T17:40:13.921Z,63.20
2022-12-01T17:42:46.812Z,62.73
2022-12-01T17:45:18.449Z,62.55
2022-12-01T17:47:46.009Z,63.12
2022-12-01T17:50:13.695Z,62.97
2022-12-01T17:52:41.136Z,62.74
2022-12-01T17:55:08.926Z,62.89
2022-12-01T17:57:36.277Z,62.57
2022-12-01T18:00:09.126Z,62.94
2022-12-01T18:02:39.054Z,62.87
2022-12-01T18:05:07.040Z,62.47
2022-12-01T18:07:34.394Z,62.55
2022-12-01T18:10:01.972Z,62.57
2022-12-01T18:12:30.637Z,62.77
2022-12-01T18:14:58.174Z,62.39
2022-12-01T18:17:27.195Z,62.62
2022-12-01T18:19:55.066Z,62.65
2022-12-01T18:22:22.889Z,62.40
2022-12-01T18:24:50.536Z,62.50
2022-12-01T18:27:17.825Z,62.39
2022-12-01T18:29:45.304Z,62.39
2022-12-01T18:32:12.474Z,62.73
2022-12-01T18:34:39.875Z,62.46
2022-12-01T18:37:10.209Z,62.30
2022-12-01T18:43:32.567Z,62.57
2022-12-01T18:46:00.563Z,62.45
2022-12-01T18:48:28.268Z,62.68
2022-12-01T18:50:59.409Z,62.41
2022-12-01T18:53:27.235Z,62.24
2022-12-01T18:56:03.776Z,61.87
2022-12-01T18:58:32.233Z,62.46
2022-12-01T19:01:01.007Z,62.28
2022-12-01T19:03:32.960Z,62.10
2022-12-01T19:06:00.385Z,62.29
2022-12-01T19:08:27.830Z,62.76
2022-12-01T19:11:04.527Z,62.29
2022-12-01T19:13:34.440Z,62.13
2022-12-01T19:16:08.573Z,62.40
2022-12-01T19:18:48.706Z,62.12
2022-12-01T19:21:21.409Z,62.72
2022-12-01T19:23:56.255Z,63.18
2022-12-01T19:26:23.539Z,62.48
2022-12-01T19:28:51.446Z,62.90
2022-12-01T19:31:23.014Z,62.84
2022-12-01T19:33:51.942Z,63.09
2022-12-01T19:36:24.030Z,63.27
2022-12-01T19:38:52.491Z,62.90
2022-12-01T19:41:20.986Z,62.93
2022-12-01T19:43:48.922Z,62.94
2022-12-01T19:46:21.664Z,63.06
2022-12-01T19:48:58.165Z,63.12
2022-12-01T19:51:29.017Z,63.17
2022-12-01T19:53:56.694Z,63.08
2022-12-01T19:56:24.799Z,63.57
2022-12-01T19:58:52.164Z,63.79
2022-12-01T20:01:20.446Z,63.55
2022-12-01T20:03:49.784Z,63.65
2022-12-01T20:06:25.879Z,63.74
2022-12-01T20:08:54.581Z,63.39
2022-12-01T20:11:21.757Z,63.69
2022-12-01T20:13:49.210Z,63.49
2022-12-01T20:16:19.649Z,63.93
2022-12-01T20:18:47.487Z,64.02
2022-12-01T20:21:20.162Z,63.68
2022-12-01T20:23:49.958Z,64.02
2022-12-01T20:26:18.810Z,64.08
2022-12-01T20:28:48.523Z,64.27
2022-12-01T20:31:26.657Z,64.15
2022-12-01T20:33:56.621Z,63.83
2022-12-01T20:36:24.219Z,64.29
2022-12-01T20:38:51.292Z,63.88
2022-12-01T20:41:18.423Z,64.06
2022-12-01T20:43:46.048Z,63.97
2022-12-01T20:46:15.033Z,63.70
2022-12-01T20:48:43.150Z,63.77
2022-12-01T20:51:13.128Z,63.71
2022-12-01T20:53:40.770Z,63.83
2022-12-01T20:56:11.058Z,64.36
2022-12-01T20:58:39.552Z,64.48
2022-12-01T21:01:16.082Z,64.10
2022-12-01T21:03:45.112Z,64.61
2022-12-01T21:06:14.288Z,64.41
2022-12-01T21:08:43.734Z,63.86
2022-12-01T21:11:40.707Z,64.04
2022-12-01T21:14:15.103Z,63.90
2022-12-01T21:16:48.356Z,64.04
2022-12-01T21:19:26.966Z,64.02
2022-12-01T21:21:54.003Z,63.86
2022-12-01T21:24:31.971Z,63.68
2022-12-01T21:27:12.872Z,64.03
2022-12-01T21:29:43.729Z,63.46
2022-12-01T21:32:13.686Z,63.82
2022-12-01T21:34:41.589Z,63.67
2022-12-01T21:37:21.297Z,63.35
2022-12-01T21:39:51.116Z,63.56
2022-12-01T21:42:27.624Z,63.92
2022-12-01T21:44:56.278Z,63.83
2022-12-01T21:47:26.084Z,63.37
2022-12-01T21:49:56.288Z,63.62
2022-12-01T21:52:30.071Z,64.29
2022-12-01T21:55:09.419Z,63.68
2022-12-01T21:57:43.033Z,63.82
2022-12-01T22:00:27.720Z,63.78
2022-12-01T22:03:29.706Z,64.00
2022-12-01T22:06:28.748Z,63.54
2022-12-01T22:08:58.269Z,63.97
2022-12-01T22:11:27.935Z,64.01
2022-12-01T22:14:04.794Z,63.70
2022-12-01T22:16:34.502Z,63.68
2022-12-01T22:19:20.994Z,63.57
2022-12-01T22:21:49.912Z,63.86
2022-12-01T22:24:39.185Z,63.91
2022-12-01T22:27:32.433Z,63.63
2022-12-01T22:30:10.970Z,63.83
2022-12-01T22:33:11.547Z,63.28
2022-12-01T22:35:49.329Z,63.62
2022-12-01T22:38:38.472Z,63.41
2022-12-01T22:41:09.389Z,63.83
2022-12-01T22:43:52.116Z,63.89
2022-12-01T22:46:37.860Z,63.40
2022-12-01T22:49:17.075Z,63.74
2022-12-01T22:51:48.793Z,63.70
2022-12-01T22:54:15.738Z,64.04
2022-12-01T22:56:48.665Z,64.00
2022-12-01T22:59:21.550Z,63.90
2022-12-01T23:02:01.512Z,63.33
2022-12-01T23:04:31.293Z,64.04
2022-12-01T23:06:58.274Z,63.57
2022-12-01T23:09:35.789Z,63.48
2022-12-01T23:12:27.461Z,63.43
2022-12-01T23:15:11.205Z,63.61
2022-12-01T23:17:39.123Z,63.59
2022-12-01T23:20:25.591Z,63.06
2022-12-01T23:22:57.408Z,63.84
2022-12-01T23:25:25.224Z,63.44
2022-12-01T23:27:54.346Z,63.80
2022-12-01T23:30:22.830Z,63.46
2022-12-01T23:33:20.554Z,63.11
2022-12-01T23:36:00.842Z,64.18
2022-12-01T23:38:45.539Z,63.38
2022-12-01T23:41:48.771Z,63.11
2022-12-01T23:44:23.948Z,63.48
2022-12-01T23:46:56.990Z,63.02
2022-12-01T23:49:29.795Z,63.31
2022-12-01T23:52:00.572Z,63.52
2022-12-01T23:54:31.007Z,63.40
2022-12-01T23:57:04.111Z,63.20
2022-12-01T23:59:31.837Z,63.15
